Time;durP1;ratioP1;P1;durP2;ratioP2;P2;SDS_P1;SDS_P2;PMS_P1;PMS_P2;Temp;Humidity;BMP_temperature;BMP_pressure;BME280_temperature;BME280_humidity;BME280_pressure;Samples;Min_cycle;Max_cycle;Signal;HPM_P1;HPM_P2
2022/08/25 00:01:42;;;;;;;2.03;1.70;;;;;;;21.77;55.12;98643.72;4984150;28;20240;-53
2022/08/25 00:04:12;;;;;;;5.70;1.90;;;;;;;21.79;55.24;98647.75;4984210;28;20310;-55
2022/08/25 00:06:40;;;;;;;4.60;1.77;;;;;;;21.83;55.19;98648.94;4983383;28;20707;-54
2022/08/25 00:09:08;;;;;;;2.20;1.83;;;;;;;21.79;55.04;98646.97;4982432;28;20231;-55
2022/08/25 00:11:37;;;;;;;1.80;1.70;;;;;;;21.74;55.40;98644.16;4983114;28;20271;-52
2022/08/25 00:14:32;;;;;;;2.33;1.73;;;;;;;21.63;55.50;98646.53;4983572;28;20581;-54
2022/08/25 00:16:59;;;;;;;2.30;1.90;;;;;;;21.58;55.75;98645.56;4983999;28;20241;-53
2022/08/25 00:19:28;;;;;;;3.73;1.80;;;;;;;21.65;55.69;98651.63;4983709;28;20233;-54
2022/08/25 00:21:55;;;;;;;1.83;1.70;;;;;;;21.58;55.85;98646.34;4983794;28;20227;-53
2022/08/25 00:24:23;;;;;;;1.80;1.70;;;;;;;21.43;56.43;98645.91;4984013;28;20228;-54
2022/08/25 00:26:52;;;;;;;2.17;1.97;;;;;;;21.37;56.89;98651.06;4984110;28;20239;-54
2022/08/25 00:29:20;;;;;;;2.00;1.70;;;;;;;21.30;56.95;98645.03;4982742;28;20236;-51
2022/08/25 00:31:48;;;;;;;2.00;1.80;;;;;;;21.23;57.01;98650.41;4983574;28;20244;-52
2022/08/25 00:34:18;;;;;;;2.03;1.80;;;;;;;21.18;57.39;98652.13;4984002;28;20235;-51
2022/08/25 00:36:45;;;;;;;2.97;1.73;;;;;;;21.22;57.75;98642.66;4983955;28;20261;-55
2022/08/25 00:39:12;;;;;;;4.07;1.90;;;;;;;21.19;57.72;98643.91;4984819;28;20230;-51
2022/08/25 00:41:42;;;;;;;2.73;1.53;;;;;;;21.12;57.83;98643.16;4982659;28;20235;-52
2022/08/25 00:44:11;;;;;;;1.70;1.60;;;;;;;21.06;57.98;98642.22;4984219;28;20242;-52
2022/08/25 00:46:42;;;;;;;2.10;1.90;;;;;;;21.02;58.47;98633.06;4983091;28;20301;-55
2022/08/25 00:49:14;;;;;;;3.10;2.15;;;;;;;21.15;58.43;98640.09;4982180;28;20535;-55
2022/08/25 00:51:44;;;;;;;2.00;1.70;;;;;;;21.07;58.62;98641.19;4982374;28;20238;-54
2022/08/25 00:54:15;;;;;;;2.20;1.90;;;;;;;21.09;58.51;98641.78;4983797;28;20239;-54
2022/08/25 00:56:43;;;;;;;2.73;2.20;;;;;;;21.18;58.61;98646.81;4982718;28;20235;-52
2022/08/25 00:59:11;;;;;;;2.17;1.83;;;;;;;21.29;58.63;98647.91;4984115;28;20250;-54
2022/08/25 01:01:37;;;;;;;3.83;1.90;;;;;;;21.26;58.56;98643.03;4983111;28;21016;-55
2022/08/25 01:04:04;;;;;;;5.07;2.20;;;;;;;21.17;58.94;98650.50;4983697;28;20325;-55
2022/08/25 01:06:36;;;;;;;1.90;1.80;;;;;;;21.12;59.32;98650.34;4983535;28;20720;-52
2022/08/25 01:09:05;;;;;;;3.60;1.93;;;;;;;21.07;59.31;98651.81;4983199;28;20684;-55
2022/08/25 01:11:33;;;;;;;2.53;2.13;;;;;;;20.93;59.48;98653.75;4982384;28;20235;-53
2022/08/25 01:14:05;;;;;;;2.20;1.90;;;;;;;20.83;60.05;98655.28;4983589;28;20294;-51
2022/08/25 01:16:51;;;;;;;3.50;1.93;;;;;;;20.65;60.74;98660.28;4983366;28;20253;-52
2022/08/25 01:19:19;;;;;;;3.27;2.93;;;;;;;20.59;61.28;98660.31;4983324;28;20302;-53
2022/08/25 01:21:49;;;;;;;4.00;1.80;;;;;;;20.48;61.49;98654.69;4984003;28;20292;-55
2022/08/25 01:24:26;;;;;;;2.17;1.97;;;;;;;20.37;61.60;98657.22;4983259;28;20262;-54
2022/08/25 01:26:53;;;;;;;2.77;2.07;;;;;;;20.33;62.75;98651.53;4984296;28;20706;-52
2022/08/25 01:29:24;;;;;;;4.27;2.03;;;;;;;20.32;62.67;98655.19;4983604;28;20253;-53
2022/08/25 01:31:56;;;;;;;2.60;2.10;;;;;;;20.26;62.92;98654.22;4983454;28;20906;-52
2022/08/25 01:34:24;;;;;;;4.43;2.00;;;;;;;20.20;63.27;98650.56;4986412;28;20292;-53
2022/08/25 01:37:13;;;;;;;2.30;2.10;;;;;;;20.01;63.49;98657.63;4987999;28;20360;-54
2022/08/25 01:39:40;;;;;;;4.47;2.03;;;;;;;19.88;63.89;98652.34;4985696;28;20254;-53
2022/08/25 01:42:32;;;;;;;2.30;2.10;;;;;;;19.73;64.51;98653.44;4986884;28;20303;-55
2022/08/25 01:44:59;;;;;;;3.00;1.83;;;;;;;19.65;65.20;98656.31;4986917;28;20287;-51
2022/08/25 01:47:26;;;;;;;2.23;2.03;;;;;;;19.57;65.37;98654.72;4986825;28;20231;-54
2022/08/25 01:49:52;;;;;;;4.23;2.10;;;;;;;19.52;65.19;98651.88;4986905;28;20224;-54
2022/08/25 01:52:24;;;;;;;2.83;2.00;;;;;;;19.40;65.52;98661.47;4986893;28;20224;-52
2022/08/25 01:54:52;;;;;;;4.67;2.13;;;;;;;19.34;66.39;98660.50;4987467;28;20234;-51
2022/08/25 01:57:19;;;;;;;2.77;2.30;;;;;;;19.26;66.88;98664.16;4986991;28;20230;-54
2022/08/25 01:59:46;;;;;;;5.63;2.47;;;;;;;19.25;67.42;98661.72;4985970;28;20225;-54
2022/08/25 02:02:13;;;;;;;2.50;2.20;;;;;;;19.20;67.66;98664.97;4987108;28;20369;-51
2022/08/25 02:04:40;;;;;;;3.70;2.67;;;;;;;19.14;67.64;98658.69;4986831;28;20226;-52
2022/08/25 02:07:08;;;;;;;5.30;2.00;;;;;;;19.05;67.52;98657.28;4986785;28;20235;-51
2022/08/25 02:09:37;;;;;;;3.17;2.00;;;;;;;18.99;68.43;98660.75;4986247;28;20223;-53
2022/08/25 02:12:04;;;;;;;3.57;2.40;;;;;;;18.95;68.26;98660.31;4985801;28;20298;-52
2022/08/25 02:14:31;;;;;;;3.73;2.40;;;;;;;18.96;68.77;98653.19;4986951;28;20254;-53
2022/08/25 02:16:58;;;;;;;6.10;2.50;;;;;;;18.92;68.67;98660.72;4987505;28;20244;-54
2022/08/25 02:19:25;;;;;;;2.70;2.30;;;;;;;18.89;68.56;98658.50;4986745;28;20232;-52
2022/08/25 02:21:52;;;;;;;2.47;2.13;;;;;;;18.84;69.38;98655.66;4987368;28;20316;-53
2022/08/25 02:24:18;;;;;;;2.57;2.13;;;;;;;18.83;69.74;98660.09;4986495;28;20240;-54
2022/08/25 02:26:47;;;;;;;4.27;2.50;;;;;;;18.78;69.56;98661.75;4987141;28;20339;-51
2022/08/25 02:29:15;;;;;;;3.40;2.30;;;;;;;18.72;70.01;98656.25;4987396;28;20237;-54
2022/08/25 02:31:42;;;;;;;5.27;2.33;;;;;;;18.72;70.66;98650.13;4986208;28;20769;-53
2022/08/25 02:34:10;;;;;;;3.23;2.20;;;;;;;18.73;70.40;98649.94;4987291;28;20719;-54
2022/08/25 02:36:38;;;;;;;4.80;2.60;;;;;;;18.73;70.55;98652.59;4968587;28;20308;-53
2022/08/25 02:39:05;;;;;;;3.00;2.70;;;;;;;18.67;70.47;98649.94;4986592;28;21733;-54
2022/08/25 02:41:32;;;;;;;5.03;2.10;;;;;;;18.63;70.48;98646.06;4985810;28;20240;-52
2022/08/25 02:44:02;;;;;;;3.07;2.20;;;;;;;18.57;70.65;98630.00;4986564;28;20236;-54
2022/08/25 02:46:29;;;;;;;4.10;2.50;;;;;;;18.56;71.27;98643.44;4985615;28;20244;-53
2022/08/25 02:48:56;;;;;;;2.53;2.23;;;;;;;18.52;71.72;98634.28;4986744;28;20367;-52
2022/08/25 02:51:27;;;;;;;2.83;2.47;;;;;;;18.53;71.35;98643.84;4986048;28;20265;-52
2022/08/25 02:53:56;;;;;;;3.23;2.37;;;;;;;18.50;71.57;98638.94;4986729;28;20320;-55
2022/08/25 02:56:23;;;;;;;4.27;2.67;;;;;;;18.43;72.09;98638.94;4986274;28;20249;-52
2022/08/25 02:58:50;;;;;;;3.97;2.80;;;;;;;18.40;71.83;98639.34;4987013;28;20242;-52
2022/08/25 03:01:19;;;;;;;2.90;2.40;;;;;;;18.40;71.98;98628.78;4965970;28;20229;-51
2022/08/25 03:03:47;;;;;;;2.83;2.57;;;;;;;18.43;72.40;98631.81;4986406;28;20230;-52
2022/08/25 03:06:16;;;;;;;4.00;2.30;;;;;;;18.43;72.75;98639.75;4986393;28;20257;-55
2022/08/25 03:08:44;;;;;;;3.07;2.10;;;;;;;18.47;72.17;98636.72;4985452;28;20241;-51
2022/08/25 03:11:11;;;;;;;3.43;2.40;;;;;;;18.42;72.29;98632.84;4984835;28;20699;-51
2022/08/25 03:13:38;;;;;;;5.40;2.57;;;;;;;18.40;72.76;98637.50;4984482;28;20285;-54
2022/08/25 03:16:06;;;;;;;3.30;2.30;;;;;;;18.40;72.34;98634.88;4986291;28;20242;-51
2022/08/25 03:18:34;;;;;;;3.10;2.30;;;;;;;18.44;72.97;98630.81;4985898;28;20241;-53
2022/08/25 03:21:02;;;;;;;2.47;2.27;;;;;;;18.41;72.08;98627.78;4985793;28;20231;-51
2022/08/25 03:23:29;;;;;;;3.23;2.40;;;;;;;18.38;72.83;98631.63;4984771;28;20776;-51
2022/08/25 03:28:41;;;;;;;2.50;2.30;;;;;;;18.41;72.94;98619.84;4985814;28;20323;-51
2022/08/25 03:31:08;;;;;;;3.30;2.27;;;;;;;18.44;73.09;98609.66;4985914;28;20243;-52
2022/08/25 03:33:37;;;;;;;2.50;2.10;;;;;;;18.37;72.71;98608.03;4985332;28;20253;-52
2022/08/25 03:36:05;;;;;;;2.43;2.20;;;;;;;18.35;73.38;98616.16;4986112;28;20232;-53
2022/08/25 03:38:32;;;;;;;4.17;2.40;;;;;;;18.36;73.55;98606.41;4985021;28;20248;-52
2022/08/25 03:40:59;;;;;;;2.97;2.67;;;;;;;18.32;72.64;98616.56;4985250;28;20912;-53
2022/08/25 03:43:44;;;;;;;2.60;1.97;;;;;;;18.24;72.78;98617.59;4985293;28;20326;-55
2022/08/25 03:46:18;;;;;;;2.67;2.47;;;;;;;18.27;72.92;98619.00;4985190;28;20235;-53
2022/08/25 03:48:46;;;;;;;4.07;2.47;;;;;;;18.19;73.51;98616.53;4984868;28;20599;-53
2022/08/25 03:51:19;;;;;;;2.73;2.33;;;;;;;18.20;73.50;98620.81;4985358;28;20307;-52
2022/08/25 03:53:46;;;;;;;5.20;2.47;;;;;;;18.15;73.44;98627.50;4985130;28;20239;-51
2022/08/25 03:56:12;;;;;;;3.40;2.20;;;;;;;18.11;74.30;98628.91;4984626;28;20235;-52
2022/08/25 03:58:39;;;;;;;2.83;2.20;;;;;;;18.10;73.98;98637.84;4984687;28;20233;-51
2022/08/25 04:01:06;;;;;;;2.97;2.30;;;;;;;18.15;74.66;98632.78;4985382;28;20237;-54
2022/08/25 04:03:33;;;;;;;2.57;2.37;;;;;;;18.17;74.55;98637.06;4984063;28;20241;-51
2022/08/25 04:06:02;;;;;;;3.50;2.43;;;;;;;18.14;74.67;98633.81;4985276;28;20230;-54
2022/08/25 04:08:29;;;;;;;6.03;2.27;;;;;;;18.17;73.81;98637.88;4984614;28;20232;-51
2022/08/25 04:10:56;;;;;;;2.73;2.23;;;;;;;18.07;74.50;98632.97;4985350;28;20733;-53
2022/08/25 04:13:23;;;;;;;3.20;2.10;;;;;;;18.07;75.23;98634.81;4981654;28;20686;-52
2022/08/25 04:15:50;;;;;;;2.73;2.53;;;;;;;18.02;74.82;98631.94;4984945;28;20872;-55
2022/08/25 04:18:17;;;;;;;3.10;2.80;;;;;;;17.97;75.34;98635.19;4983795;28;20328;-55
2022/08/25 04:20:44;;;;;;;3.47;2.70;;;;;;;17.94;75.56;98630.28;4985170;28;20235;-54
2022/08/25 04:23:12;;;;;;;3.53;2.33;;;;;;;17.94;75.38;98631.09;4984456;28;20757;-55
2022/08/25 04:25:40;;;;;;;2.90;2.53;;;;;;;17.97;76.01;98632.53;4983829;28;20237;-54
2022/08/25 04:28:07;;;;;;;3.20;2.87;;;;;;;17.99;75.64;98628.69;4984826;28;20258;-52
2022/08/25 04:30:34;;;;;;;2.97;2.67;;;;;;;18.04;76.09;98627.28;4983936;28;20224;-55
2022/08/25 04:33:01;;;;;;;4.50;2.50;;;;;;;18.08;75.17;98631.97;4984081;28;20717;-53
2022/08/25 04:35:28;;;;;;;3.13;2.40;;;;;;;18.15;75.72;98627.50;4984369;28;20232;-52
2022/08/25 04:37:54;;;;;;;2.80;2.50;;;;;;;18.18;75.00;98625.47;4984604;28;20243;-54
2022/08/25 04:40:23;;;;;;;3.90;2.30;;;;;;;18.25;74.98;98619.22;4983840;28;20235;-55
2022/08/25 04:42:49;;;;;;;3.10;2.53;;;;;;;18.28;74.60;98615.34;4984052;28;20232;-54
2022/08/25 04:45:16;;;;;;;2.60;2.37;;;;;;;18.33;74.84;98612.09;4983936;28;20743;-51
2022/08/25 04:47:43;;;;;;;2.80;2.53;;;;;;;18.33;74.71;98610.25;4984460;28;20233;-52
2022/08/25 04:50:09;;;;;;;2.73;2.50;;;;;;;18.41;74.73;98614.56;4984188;28;20235;-54
2022/08/25 04:52:36;;;;;;;2.97;2.67;;;;;;;18.43;74.23;98617.81;4983661;28;20251;-53
2022/08/25 04:55:04;;;;;;;2.20;2.00;;;;;;;18.47;73.65;98612.91;4984354;28;20250;-53
2022/08/25 04:57:32;;;;;;;4.80;2.50;;;;;;;18.47;73.93;98611.09;4983788;28;20513;-55
2022/08/25 04:59:59;;;;;;;4.30;2.40;;;;;;;18.54;74.37;98613.75;4984335;28;20228;-55
2022/08/25 05:02:44;;;;;;;3.00;1.90;;;;;;;18.54;73.81;98619.84;4982960;28;20823;-53
2022/08/25 05:05:11;;;;;;;2.80;2.47;;;;;;;18.56;73.67;98614.34;4983844;28;20235;-52
2022/08/25 05:07:37;;;;;;;3.07;2.50;;;;;;;18.61;73.82;98619.84;4982981;28;20247;-52
2022/08/25 05:10:05;;;;;;;2.47;2.27;;;;;;;18.63;74.20;98631.03;4984457;28;20234;-55
2022/08/25 05:12:33;;;;;;;3.43;2.20;;;;;;;18.59;74.55;98627.97;4983081;28;20298;-53
2022/08/25 05:15:48;;;;;;;3.73;2.33;;;;;;;18.58;74.52;98625.53;4981657;28;20231;-53
2022/08/25 05:17:47;;;;;;;2.83;2.30;;;;;;;18.57;74.37;98626.56;4983136;28;20295;-54
2022/08/25 05:20:13;;;;;;;2.27;2.07;;;;;;;18.56;74.13;98625.72;4984508;28;20285;-51
2022/08/25 05:22:43;;;;;;;2.73;2.20;;;;;;;18.55;74.61;98620.66;4982746;28;20297;-52
2022/08/25 05:25:10;;;;;;;2.93;2.30;;;;;;;18.56;74.84;98617.78;4983979;28;20254;-51
2022/08/25 05:27:38;;;;;;;2.40;2.07;;;;;;;18.57;75.25;98623.91;4983411;28;20221;-53
2022/08/25 05:30:06;;;;;;;2.33;1.83;;;;;;;18.59;74.63;98620.03;4984093;28;20233;-54
2022/08/25 05:32:33;;;;;;;3.07;2.43;;;;;;;18.58;74.41;98621.03;4982687;28;20239;-55
2022/08/25 05:35:00;;;;;;;2.50;2.30;;;;;;;18.58;74.88;98618.41;4984442;28;20298;-53
2022/08/25 05:37:26;;;;;;;2.50;2.10;;;;;;;18.63;75.41;98612.53;4983448;28;20238;-52
2022/08/25 05:39:53;;;;;;;2.43;2.23;;;;;;;18.63;75.00;98617.81;4983809;28;20235;-54
2022/08/25 05:42:21;;;;;;;3.40;2.37;;;;;;;18.63;74.92;98604.59;4982591;28;20296;-54
2022/08/25 05:44:49;;;;;;;2.53;2.10;;;;;;;18.58;75.43;98610.47;4983909;28;20233;-51
2022/08/25 05:47:16;;;;;;;3.23;2.37;;;;;;;18.56;75.54;98603.78;4983327;28;20236;-51
2022/08/25 05:49:43;;;;;;;2.87;2.37;;;;;;;18.56;75.51;98609.06;4983545;28;20239;-52
2022/08/25 05:52:09;;;;;;;4.07;2.40;;;;;;;18.55;75.48;98602.94;4983809;28;20240;-52
2022/08/25 05:54:36;;;;;;;3.10;2.53;;;;;;;18.55;75.46;98604.78;4982834;28;20686;-55
2022/08/25 05:57:03;;;;;;;4.50;2.53;;;;;;;18.53;75.90;98599.72;4983754;28;20237;-55
2022/08/25 05:59:30;;;;;;;3.23;2.27;;;;;;;18.54;75.48;98595.25;4982672;28;20323;-53
2022/08/25 06:04:42;;;;;;;6.77;2.97;;;;;;;18.55;75.42;98586.28;4983395;28;20235;-55
2022/08/25 06:07:10;;;;;;;2.90;2.60;;;;;;;18.58;76.13;98577.94;4984064;28;20275;-54
2022/08/25 06:09:38;;;;;;;2.90;2.50;;;;;;;18.59;75.91;98587.50;4982893;28;20324;-53
2022/08/25 06:12:07;;;;;;;3.07;2.60;;;;;;;18.63;75.90;98587.91;4983176;28;20874;-55
2022/08/25 06:14:34;;;;;;;3.00;2.70;;;;;;;18.64;76.68;98590.34;4980922;28;20220;-53
2022/08/25 06:17:03;;;;;;;4.40;2.40;;;;;;;18.71;76.12;98591.16;4982474;28;20314;-54
2022/08/25 06:19:30;;;;;;;2.63;2.43;;;;;;;18.78;76.00;98579.78;4984866;28;20349;-54
2022/08/25 06:21:57;;;;;;;2.50;2.27;;;;;;;18.84;76.09;98584.25;4986978;28;20265;-54
2022/08/25 06:24:25;;;;;;;3.03;2.30;;;;;;;18.92;76.10;98583.19;4986793;28;20239;-54
2022/08/25 06:26:52;;;;;;;3.73;2.30;;;;;;;18.98;75.63;98582.41;4987467;28;20247;-51
2022/08/25 06:29:19;;;;;;;2.70;2.47;;;;;;;19.03;75.22;98572.84;4986823;28;20329;-51
2022/08/25 06:31:48;;;;;;;2.90;2.47;;;;;;;19.12;74.95;98569.94;4986651;28;20244;-50
2022/08/25 06:34:17;;;;;;;4.43;2.50;;;;;;;19.20;75.27;98572.38;4986801;28;20233;-52
2022/08/25 06:36:44;;;;;;;3.60;2.37;;;;;;;19.30;74.16;98570.09;4986544;28;20331;-51
2022/08/25 06:39:29;;;;;;;2.90;2.60;;;;;;;19.42;72.82;98557.03;4986275;28;20247;-54
2022/08/25 06:41:57;;;;;;;2.50;2.30;;;;;;;19.55;73.18;98555.38;4986639;28;21156;-50
2022/08/25 06:44:26;;;;;;;3.20;2.40;;;;;;;19.70;72.32;98557.72;4986287;28;20240;-53
2022/08/25 06:46:53;;;;;;;2.77;2.27;;;;;;;19.89;70.77;98561.31;4986570;28;20635;-51
2022/08/25 06:49:21;;;;;;;4.53;2.70;;;;;;;20.09;70.52;98555.91;4986018;28;20242;-51
2022/08/25 06:51:49;;;;;;;4.50;2.63;;;;;;;20.27;69.62;98560.44;4986152;28;20231;-51
2022/08/25 06:54:16;;;;;;;2.30;1.87;;;;;;;20.48;68.37;98561.88;4986489;28;20316;-54
2022/08/25 06:56:43;;;;;;;3.43;2.60;;;;;;;20.67;68.14;98558.50;4987127;28;20225;-55
2022/08/25 06:59:10;;;;;;;2.53;2.33;;;;;;;20.86;67.47;98562.78;4986370;28;20784;-53
2022/08/25 07:01:37;;;;;;;2.97;2.47;;;;;;;21.02;67.13;98560.59;4984677;28;20716;-53
2022/08/25 07:04:05;;;;;;;2.87;2.50;;;;;;;21.16;66.25;98561.28;4986459;28;20719;-52
2022/08/25 07:06:35;;;;;;;3.30;2.00;;;;;;;21.29;65.34;98557.66;4985493;28;20244;-54
2022/08/25 07:09:03;;;;;;;6.27;3.00;;;;;;;21.41;64.91;98565.66;4986038;28;20281;-53
2022/08/25 07:11:33;;;;;;;3.77;3.00;;;;;;;21.51;64.65;98561.47;4985414;28;20230;-55
2022/08/25 07:14:01;;;;;;;4.97;3.27;;;;;;;21.60;64.71;98558.50;4985786;28;20234;-52
2022/08/25 07:16:30;;;;;;;5.50;3.73;;;;;;;21.71;64.52;98557.78;4982386;28;20227;-52
2022/08/25 07:18:58;;;;;;;4.23;3.83;;;;;;;21.79;64.46;98565.41;4983642;28;20239;-54
2022/08/25 07:21:26;;;;;;;4.77;3.60;;;;;;;21.85;64.21;98568.19;4985201;28;20323;-54
2022/08/25 07:23:57;;;;;;;7.93;3.90;;;;;;;21.92;63.99;98577.69;4985848;28;20236;-52
2022/08/25 07:26:27;;;;;;;5.83;3.30;;;;;;;22.05;63.31;98581.22;4985295;28;20231;-51
2022/08/25 07:28:55;;;;;;;3.20;2.87;;;;;;;22.16;62.40;98583.09;4983048;28;20280;-53
2022/08/25 07:31:21;;;;;;;4.33;3.40;;;;;;;22.14;62.87;98574.53;4982645;28;20283;-54
2022/08/25 07:36:36;;;;;;;6.60;3.43;;;;;;;22.29;62.46;98586.56;4985022;28;20297;-54
2022/08/25 07:39:05;;;;;;;5.60;3.10;;;;;;;22.45;61.60;98590.44;4985476;28;20249;-53
2022/08/25 07:41:33;;;;;;;4.03;3.33;;;;;;;22.39;61.42;98582.31;4984732;28;20240;-54
2022/08/25 07:44:00;;;;;;;6.93;3.57;;;;;;;22.45;60.97;98585.13;4985332;28;20255;-51
2022/08/25 07:46:27;;;;;;;6.20;3.47;;;;;;;22.49;61.14;98581.75;4983651;28;20727;-53
2022/08/25 07:48:54;;;;;;;5.83;3.47;;;;;;;22.65;60.08;98585.59;4984842;28;20231;-51
2022/08/25 07:51:21;;;;;;;11.83;3.60;;;;;;;22.66;60.19;98584.56;4984610;28;20230;-52
2022/08/25 07:53:47;;;;;;;4.43;3.13;;;;;;;22.79;60.73;98591.50;4985420;28;20231;-52
2022/08/25 07:56:17;;;;;;;7.70;3.47;;;;;;;22.97;59.69;98590.56;4985181;28;20247;-55
2022/08/25 07:58:44;;;;;;;5.60;2.90;;;;;;;23.07;59.09;98592.66;4972702;28;20279;-55
2022/08/25 08:01:14;;;;;;;5.03;3.30;;;;;;;23.17;59.09;98596.56;4980180;28;20235;-52
2022/08/25 08:03:41;;;;;;;4.30;2.80;;;;;;;23.30;58.05;98596.34;4982541;28;20236;-55
2022/08/25 08:06:09;;;;;;;5.07;2.63;;;;;;;23.36;57.50;98594.59;4963055;28;20228;-52
2022/08/25 08:08:36;;;;;;;5.97;3.60;;;;;;;23.49;57.20;98596.97;4967183;28;20251;-53
2022/08/25 08:11:03;;;;;;;7.77;3.20;;;;;;;23.63;56.53;98597.50;4984962;28;20233;-51
2022/08/25 08:13:32;;;;;;;6.80;3.07;;;;;;;23.78;56.24;98602.34;4983315;28;20236;-51
2022/08/25 08:15:58;;;;;;;5.13;3.00;;;;;;;23.85;55.74;98607.50;4982046;28;20686;-53
2022/08/25 08:18:25;;;;;;;8.43;3.33;;;;;;;23.87;56.30;98608.09;4982553;28;20232;-53
2022/08/25 08:20:52;;;;;;;4.60;3.17;;;;;;;23.92;56.14;98602.84;4984381;28;20244;-55
2022/08/25 08:23:19;;;;;;;6.30;3.07;;;;;;;24.09;55.47;98607.44;4983644;28;20251;-54
2022/08/25 08:25:46;;;;;;;4.10;3.13;;;;;;;24.24;54.23;98586.38;4984718;28;20235;-53
2022/08/25 08:28:13;;;;;;;5.40;2.50;;;;;;;24.31;53.96;98595.03;4984464;28;20695;-56
2022/08/25 08:30:42;;;;;;;5.17;3.43;;;;;;;24.41;53.17;98591.69;4983049;28;20229;-56
2022/08/25 08:33:09;;;;;;;7.60;3.03;;;;;;;24.49;53.78;98590.47;4984847;28;20265;-55
2022/08/25 08:35:36;;;;;;;4.37;3.00;;;;;;;24.60;52.96;98584.25;4983954;28;20250;-54
2022/08/25 08:38:02;;;;;;;4.10;3.07;;;;;;;24.74;50.77;98582.09;4984470;28;20239;-55
2022/08/25 08:40:31;;;;;;;5.70;2.80;;;;;;;24.83;51.02;98587.81;4983753;28;20228;-54
2022/08/25 08:43:06;;;;;;;7.23;2.50;;;;;;;24.91;47.53;98583.88;4983660;28;20248;-55
2022/08/25 08:45:35;;;;;;;3.87;2.50;;;;;;;25.03;47.47;98586.47;4982919;28;20290;-55
2022/08/25 08:48:23;;;;;;;3.17;2.70;;;;;;;25.24;45.69;98581.41;4984168;28;20456;-53
2022/08/25 08:51:00;;;;;;;4.00;2.90;;;;;;;25.38;46.62;98579.97;4983188;28;20695;-53
2022/08/25 08:53:37;;;;;;;3.20;2.47;;;;;;;25.47;45.43;98580.34;4983899;28;20240;-52
2022/08/25 08:56:08;;;;;;;5.00;2.43;;;;;;;25.56;44.57;98588.72;4983708;28;20244;-54
2022/08/25 08:58:42;;;;;;;3.73;2.43;;;;;;;25.63;44.39;98592.00;4983315;28;20690;-52
2022/08/25 09:01:12;;;;;;;2.87;2.33;;;;;;;25.72;43.74;98584.38;4982394;28;20233;-53
2022/08/25 09:03:43;;;;;;;4.23;2.90;;;;;;;25.76;43.90;98582.81;4982370;28;20233;-55
2022/08/25 09:06:12;;;;;;;4.43;2.50;;;;;;;25.90;44.42;98577.84;4984206;28;20340;-55
2022/08/25 09:08:43;;;;;;;2.23;2.00;;;;;;;25.88;43.57;98575.44;4983922;28;20225;-53
2022/08/25 09:11:14;;;;;;;3.23;2.53;;;;;;;26.02;43.38;98577.69;4984055;28;20235;-51
2022/08/25 09:13:57;;;;;;;3.33;2.67;;;;;;;26.16;42.93;98589.63;4983144;28;20276;-51
2022/08/25 09:19:33;;;;;;;3.50;2.60;;;;;;;26.29;43.12;98567.00;4982948;28;21471;-51
2022/08/25 09:22:28;;;;;;;6.97;2.50;;;;;;;26.45;42.41;98583.97;4983316;28;20773;-53
2022/08/25 09:25:03;;;;;;;3.77;3.33;;;;;;;26.64;41.83;98579.00;4983615;28;20234;-52
2022/08/25 09:27:38;;;;;;;2.93;2.63;;;;;;;26.84;41.42;98582.91;4982674;28;20344;-53
2022/08/25 09:30:07;;;;;;;4.60;2.70;;;;;;;26.84;40.79;98579.44;4983811;28;20230;-52
2022/08/25 09:32:38;;;;;;;3.40;2.70;;;;;;;26.82;42.01;98577.00;4981940;28;20235;-51
2022/08/25 09:35:10;;;;;;;4.40;2.30;;;;;;;26.90;41.63;98570.38;4984103;28;20234;-55
2022/08/25 09:37:37;;;;;;;2.87;2.40;;;;;;;27.12;41.55;98562.16;4983371;28;20263;-53
2022/08/25 09:40:04;;;;;;;3.70;3.10;;;;;;;27.22;40.72;98570.22;4984092;28;20235;-53
2022/08/25 09:42:49;;;;;;;4.17;3.00;;;;;;;27.32;39.90;98553.38;4982333;28;20248;-52
2022/08/25 09:45:32;;;;;;;3.30;2.67;;;;;;;27.30;39.98;98554.72;4983911;28;20250;-54
2022/08/25 09:47:59;;;;;;;3.67;3.10;;;;;;;27.47;39.52;98555.31;4965413;28;20235;-51
2022/08/25 09:50:31;;;;;;;3.20;2.90;;;;;;;27.50;39.32;98544.09;4983201;28;20246;-54
2022/08/25 09:53:12;;;;;;;3.30;2.60;;;;;;;27.53;40.15;98543.56;4983716;28;20348;-52
2022/08/25 09:55:41;;;;;;;2.93;2.73;;;;;;;27.61;39.38;98536.03;4987384;28;20248;-52
2022/08/25 09:58:18;;;;;;;5.45;2.90;;;;;;;27.82;39.69;98536.91;4987442;28;20253;-54
2022/08/25 10:00:45;;;;;;;3.40;2.80;;;;;;;27.94;38.95;98532.09;4985855;28;20638;-54
2022/08/25 10:03:19;;;;;;;3.00;2.70;;;;;;;28.13;39.54;98534.22;4986778;28;20242;-54
2022/08/25 10:06:05;;;;;;;3.67;2.60;;;;;;;28.18;38.09;98528.88;4987282;28;20262;-51
2022/08/25 10:08:37;;;;;;;6.47;2.60;;;;;;;28.14;38.79;98522.44;4986494;28;20232;-54
2022/08/25 10:11:07;;;;;;;3.93;3.00;;;;;;;28.36;37.42;98535.56;4987484;28;20230;-55
2022/08/25 10:13:41;;;;;;;2.83;2.53;;;;;;;28.47;37.23;98524.81;4986068;28;20247;-53
2022/08/25 10:16:12;;;;;;;6.55;2.58;;;;;;;28.57;37.30;98519.44;4985740;28;20669;-52
2022/08/25 10:18:39;;;;;;;3.60;2.60;;;;;;;28.69;36.36;98519.91;4984532;28;20236;-54
2022/08/25 10:21:13;;;;;;;2.70;2.30;;;;;;;28.80;36.39;98512.69;4987305;28;20237;-53
2022/08/25 10:23:46;;;;;;;2.88;2.40;;;;;;;28.66;36.42;98517.78;4985968;28;20288;-51
2022/08/25 10:26:22;;;;;;;3.17;2.70;;;;;;;28.84;36.53;98511.06;4986931;28;20243;-54
2022/08/25 10:29:03;;;;;;;2.85;2.35;;;;;;;28.99;36.08;98523.59;4986472;28;20245;-53
2022/08/25 10:31:35;;;;;;;2.45;2.20;;;;;;;29.05;36.43;98512.84;4985078;28;20291;-54
2022/08/25 10:34:26;;;;;;;3.20;2.28;;;;;;;29.16;35.67;98507.13;4986714;28;20264;-55
2022/08/25 10:37:06;;;;;;;2.80;2.43;;;;;;;29.29;34.76;98507.59;4986727;28;20267;-53
2022/08/25 10:39:40;;;;;;;2.30;2.10;;;;;;;29.33;35.66;98507.88;4985406;28;20239;-54
2022/08/25 10:42:29;;;;;;;2.75;2.55;;;;;;;29.56;34.79;98496.47;4987095;28;20327;-54
2022/08/25 10:48:23;;;;;;;3.22;2.08;;;;;;;29.78;34.53;98492.50;4985383;28;20245;-52
2022/08/25 10:50:54;;;;;;;2.83;2.50;;;;;;;30.17;34.24;98488.97;4986373;28;20250;-55
2022/08/25 10:53:51;;;;;;;3.15;2.40;;;;;;;30.48;33.34;98494.06;4985893;28;20239;-51
2022/08/25 10:56:22;;;;;;;3.35;2.58;;;;;;;30.68;32.89;98486.06;4985740;28;20243;-55
2022/08/25 10:59:35;;;;;;;2.63;2.22;;;;;;;30.49;32.63;98479.50;4986212;28;20716;-53
2022/08/25 11:02:24;;;;;;;3.22;2.70;;;;;;;30.37;33.72;98475.59;4917025;28;20242;-56
2022/08/25 11:04:55;;;;;;;4.20;2.40;;;;;;;30.42;34.57;98476.34;4925386;29;20237;-55
2022/08/25 11:07:28;;;;;;;4.57;2.92;;;;;;;30.37;34.78;98464.81;4959447;28;20249;-51
2022/08/25 11:10:02;;;;;;;3.03;2.75;;;;;;;30.52;35.14;98463.88;4986046;28;20228;-52
2022/08/25 11:12:33;;;;;;;3.95;3.05;;;;;;;30.74;34.12;98466.06;4985198;28;20232;-53
2022/08/25 11:15:03;;;;;;;4.32;2.67;;;;;;;30.56;34.17;98465.69;4986540;28;20241;-53
2022/08/25 11:17:39;;;;;;;3.63;3.15;;;;;;;30.38;34.06;98464.56;4983889;28;20243;-55
2022/08/25 11:20:12;;;;;;;4.53;3.00;;;;;;;30.58;34.13;98465.44;4983303;28;20244;-54
2022/08/25 11:22:42;;;;;;;3.17;2.65;;;;;;;30.73;34.00;98457.19;4985388;28;20270;-54
2022/08/25 11:25:17;;;;;;;3.00;2.75;;;;;;;30.84;32.67;98463.22;4985450;28;20248;-53
2022/08/25 11:27:53;;;;;;;3.72;2.47;;;;;;;30.84;33.53;98468.63;4985887;28;20238;-54
2022/08/25 11:30:21;;;;;;;5.13;2.92;;;;;;;30.27;34.53;98449.59;4984106;28;20557;-53
2022/08/25 11:32:51;;;;;;;4.00;2.83;;;;;;;30.18;35.32;98452.13;4985729;28;20237;-55
2022/08/25 11:35:20;;;;;;;3.40;2.83;;;;;;;30.28;33.87;98448.50;4985544;28;20240;-52
2022/08/25 11:38:07;;;;;;;3.20;2.60;;;;;;;30.40;33.90;98451.59;4985944;28;20246;-55
2022/08/25 11:40:54;;;;;;;2.70;2.50;;;;;;;30.55;34.41;98439.84;4983115;28;20617;-55
2022/08/25 11:43:46;;;;;;;6.20;2.95;;;;;;;30.40;34.76;98434.63;4984880;28;20257;-55
2022/08/25 11:46:31;;;;;;;6.68;3.05;;;;;;;30.39;35.52;98439.22;4984456;28;20245;-53
2022/08/25 11:49:09;;;;;;;4.30;2.60;;;;;;;30.34;33.56;98439.28;4983926;28;20229;-55
2022/08/25 11:51:43;;;;;;;4.35;2.90;;;;;;;30.40;33.70;98438.13;4985144;28;20231;-55
2022/08/25 11:54:21;;;;;;;3.47;2.83;;;;;;;30.21;33.90;98438.06;4985891;28;20310;-55
2022/08/25 11:56:59;;;;;;;7.60;3.22;;;;;;;30.01;34.84;98439.91;4969373;28;20230;-56
2022/08/25 12:00:02;;;;;;;2.92;2.70;;;;;;;29.94;34.76;98430.50;4984890;28;20258;-55
2022/08/25 12:02:36;;;;;;;5.75;3.22;;;;;;;30.04;35.15;98416.97;4982584;28;20310;-52
2022/08/25 12:05:06;;;;;;;3.63;2.60;;;;;;;30.22;35.17;98417.34;4984676;28;20236;-53